sensor_id;sensor_type;location;lat;lon;timestamp;temperature;humidity
12460;DHT22;6295;49.452;8.466;2022-11-15T08:14:52;10.10;99.90
12460;DHT22;6295;49.452;8.466;2022-11-15T08:18:54;10.10;99.90
12460;DHT22;6295;49.452;8.466;2022-11-15T08:22:56;10.10;99.90
12460;DHT22;6295;49.452;8.466;2022-11-15T08:26:59;10.10;99.90
12460;DHT22;6295;49.452;8.466;2022-11-15T08:31:05;10.20;99.90
12460;DHT22;6295;49.452;8.466;2022-11-15T08:35:08;10.20;99.90
12460;DHT22;6295;49.452;8.466;2022-11-15T08:39:11;10.30;99.90
12460;DHT22;6295;49.452;8.466;2022-11-15T08:43:13;10.30;99.90
12460;DHT22;6295;49.452;8.466;2022-11-15T08:47:17;10.30;99.90
12460;DHT22;6295;49.452;8.466;2022-11-15T08:51:19;10.30;99.90
12460;DHT22;6295;49.452;8.466;2022-11-15T08:55:21;10.40;99.90
12460;DHT22;6295;49.452;8.466;2022-11-15T08:59:23;10.40;99.90
12460;DHT22;6295;49.452;8.466;2022-11-15T09:03:29;10.50;99.90
12460;DHT22;6295;49.452;8.466;2022-11-15T09:07:33;10.50;99.90
12460;DHT22;6295;49.452;8.466;2022-11-15T09:11:35;10.50;99.90
12460;DHT22;6295;49.452;8.466;2022-11-15T09:15:38;10.60;99.90
12460;DHT22;6295;49.452;8.466;2022-11-15T09:19:41;10.60;99.90
12460;DHT22;6295;49.452;8.466;2022-11-15T09:23:44;10.60;99.90
12460;DHT22;6295;49.452;8.466;2022-11-15T09:27:46;10.70;99.90
12460;DHT22;6295;49.452;8.466;2022-11-15T09:31:48;10.80;99.90
12460;DHT22;6295;49.452;8.466;2022-11-15T09:35:52;10.90;99.90
12460;DHT22;6295;49.452;8.466;2022-11-15T09:39:55;11.00;99.90
12460;DHT22;6295;49.452;8.466;2022-11-15T09:44:19;11.10;99.90
12460;DHT22;6295;49.452;8.466;2022-11-15T09:53:01;11.30;99.90
12460;DHT22;6295;49.452;8.466;2022-11-15T09:57:09;11.30;99.90
12460;DHT22;6295;49.452;8.466;2022-11-15T10:01:16;11.30;99.90
12460;DHT22;6295;49.452;8.466;2022-11-15T10:05:21;11.40;99.90
12460;DHT22;6295;49.452;8.466;2022-11-15T10:09:28;11.40;99.90
12460;DHT22;6295;49.452;8.466;2022-11-15T10:13:35;11.50;99.90
12460;DHT22;6295;49.452;8.466;2022-11-15T10:22:00;11.60;99.90
12460;DHT22;6295;49.452;8.466;2022-11-15T10:26:13;11.60;99.90
12460;DHT22;6295;49.452;8.466;2022-11-15T10:30:18;11.60;99.90
12460;DHT22;6295;49.452;8.466;2022-11-15T10:34:22;11.60;99.90
12460;DHT22;6295;49.452;8.466;2022-11-15T10:46:32;11.80;99.90
12460;DHT22;6295;49.452;8.466;2022-11-15T10:50:34;11.80;99.90
12460;DHT22;6295;49.452;8.466;2022-11-15T10:54:43;11.80;99.90
12460;DHT22;6295;49.452;8.466;2022-11-15T10:58:51;11.80;99.90
12460;DHT22;6295;49.452;8.466;2022-11-15T11:03:01;11.90;99.90
12460;DHT22;6295;49.452;8.466;2022-11-15T11:07:21;11.90;99.90
12460;DHT22;6295;49.452;8.466;2022-11-15T11:11:24;12.00;99.90
12460;DHT22;6295;49.452;8.466;2022-11-15T11:15:29;12.00;99.90
12460;DHT22;6295;49.452;8.466;2022-11-15T11:19:53;12.00;99.90
12460;DHT22;6295;49.452;8.466;2022-11-15T11:24:02;12.00;99.90
12460;DHT22;6295;49.452;8.466;2022-11-15T11:28:20;12.10;99.90
12460;DHT22;6295;49.452;8.466;2022-11-15T11:32:36;12.10;99.90
12460;DHT22;6295;49.452;8.466;2022-11-15T11:36:48;12.20;99.90
12460;DHT22;6295;49.452;8.466;2022-11-15T11:45:10;12.40;99.90
12460;DHT22;6295;49.452;8.466;2022-11-15T11:49:23;12.40;99.90
12460;DHT22;6295;49.452;8.466;2022-11-15T11:57:37;12.50;99.90
12460;DHT22;6295;49.452;8.466;2022-11-15T12:01:43;12.60;99.90
12460;DHT22;6295;49.452;8.466;2022-11-15T12:05:51;12.60;99.90
12460;DHT22;6295;49.452;8.466;2022-11-15T12:10:02;12.60;99.90
12460;DHT22;6295;49.452;8.466;2022-11-15T12:14:22;12.60;99.90
12460;DHT22;6295;49.452;8.466;2022-11-15T12:18:26;12.60;99.90
12460;DHT22;6295;49.452;8.466;2022-11-15T12:22:39;12.70;99.90
12460;DHT22;6295;49.452;8.466;2022-11-15T12:30:51;12.70;99.90
12460;DHT22;6295;49.452;8.466;2022-11-15T12:34:55;12.70;99.90
12460;DHT22;6295;49.452;8.466;2022-11-15T12:39:00;12.70;99.90
12460;DHT22;6295;49.452;8.466;2022-11-15T12:47:24;12.80;99.90
12460;DHT22;6295;49.452;8.466;2022-11-15T12:52:03;12.80;99.90
12460;DHT22;6295;49.452;8.466;2022-11-15T12:56:20;12.80;99.90
12460;DHT22;6295;49.452;8.466;2022-11-15T13:00:43;12.80;99.90
12460;DHT22;6295;49.452;8.466;2022-11-15T13:04:47;12.80;99.90
12460;DHT22;6295;49.452;8.466;2022-11-15T13:08:50;12.80;99.90
12460;DHT22;6295;49.452;8.466;2022-11-15T13:12:56;12.80;99.90
12460;DHT22;6295;49.452;8.466;2022-11-15T13:16:59;12.80;99.90
12460;DHT22;6295;49.452;8.466;2022-11-15T13:21:04;12.90;99.90
12460;DHT22;6295;49.452;8.466;2022-11-15T13:25:52;12.80;99.90
12460;DHT22;6295;49.452;8.466;2022-11-15T13:30:12;12.90;99.90
12460;DHT22;6295;49.452;8.466;2022-11-15T13:34:28;12.90;99.90
12460;DHT22;6295;49.452;8.466;2022-11-15T13:38:36;12.90;99.90
12460;DHT22;6295;49.452;8.466;2022-11-15T13:42:38;12.90;99.90
12460;DHT22;6295;49.452;8.466;2022-11-15T13:50:46;12.90;99.90
